Search flights

Honolulu Intl Airport, Honolulu (PHNL)

Airport Weather & NOTAM's

METAR for:PHNL (Honolulu Intl, HI, US)
Text:PHNL 140253Z 07015G24KT 10SM FEW024 SCT036 BKN045 29/19 A3003 RMK AO2 PK WND 07031/0207 SLP169 T02890194 55005
Conditions at:0253 UTC 14 Jul 2024
Temperature: 28.9°C ( 84°F)
Dewpoint: 19.4°C ( 67°F) [RH = 57%]
Pressure (altimeter):30.03 inches Hg (1017.0 mb) [Sea level pressure: 1016.9 mb]
Winds:from the ENE (70 degrees) at 17 MPH (15 knots; 7.7 m/s) gusting to 28 MPH (24 knots; 12.3 m/s)
Visibility:10 or more sm (16+ km)
Ceiling:4500 feet AGL
Clouds:few clouds at 2400 feet AGL, scattered clouds at 3600 feet AGL, broken clouds at 4500 feet AGL
TAF for:PHNL (Honolulu Intl, HI, US) issued at 0256 UTC 14 Jul 2024
Text:PHNL 140256Z 1403/1506 07018G28KT P6SM FEW025 SCT035 BKN045
Forecast period:0300 to 0800 UTC 14 July 2024
Forecast type:FROM: standard forecast or significant change
Winds:from the ENE (70 degrees) at 21 MPH (18 knots; 9.3 m/s) gusting to 32 MPH (28 knots; 14.4 m/s)
Visibility:6 or more sm (10+ km)
Ceiling:4500 feet AGL
Clouds:few clouds at 2500 feet AGL, scattered clouds at 3500 feet AGL, broken clouds at 4500 feet AGL
Text:FM140800 06011G20KT P6SM FEW025 SCT040
Forecast period:0800 to 1800 UTC 14 July 2024
Forecast type:FROM: standard forecast or significant change
Winds:from the ENE (60 degrees) at 13 MPH (11 knots; 5.7 m/s) gusting to 23 MPH (20 knots; 10.3 m/s)
Visibility:6 or more sm (10+ km)
Ceiling:at least 12,000 feet AGL
Clouds:few clouds at 2500 feet AGL, scattered clouds at 4000 feet AGL
Text:FM141800 05018G28KT P6SM FEW025 SCT045
Forecast period:1800 UTC 14 July 2024 to 0600 UTC 15 July 2024
Forecast type:FROM: standard forecast or significant change
Winds:from the NE (50 degrees) at 21 MPH (18 knots; 9.3 m/s) gusting to 32 MPH (28 knots; 14.4 m/s)
Visibility:6 or more sm (10+ km)
Ceiling:at least 12,000 feet AGL
Clouds:few clouds at 2500 feet AGL, scattered clouds at 4500 feet AGL

Live Departures & Arrivals

There are currently no arrivals or departures for this airport.

Departures History (last 12 months)

Flight No. Dest. Aircraft Date
FX 759 KLAX FEDEX-MD11... 2024-07-10 00:00:00
CONNECT 82 RJBB FEDEX-B77F 2024-07-06 00:00:00
CONNECT82 RJBB FEDEX-B77F 2024-07-04 00:00:00
CONNECT82 RJBB FEDEX-B77F 2024-07-02 00:00:00
MTN 8734 PHNY FEDEX-C208 2024-06-30 00:00:00
FX807 ZGGG FEDEX-MD11... 2024-06-25 00:00:00
MTN8734 PHNY FEDEX-C208 2024-06-17 00:00:00
FX 202 KMEM FEDEX-MD11... 2024-06-17 00:00:00
CONNECT 07 NZAA FEDEX-B77F 2024-06-09 00:00:00
CONNECT07 NZAA FEDEX-B77F 2024-06-03 00:00:00
CONNECT17 RKSI FEDEX-MD11... 2024-05-31 00:00:00
FX202 KMEM FEDEX-B77F 2024-05-06 00:00:00
FX 807 ZGGG FEDEX-MD11... 2024-04-28 00:00:00
FX CTR KLAX FEDEX-B77F 2024-04-23 00:00:00
FX 799 KONT FEDEX-B77F 2024-04-16 00:00:00
FX657 ZSPD FEDEX-B77F 2024-04-11 00:00:00
FX676 RJBB FEDEX-B77F 2024-04-04 00:00:00
FXCTR KMEM FEDEX-B77F 2024-03-31 00:00:00
FX 202 KMEM FEDEX-MD11... 2024-03-28 00:00:00
FX 202 KMEM FEDEX-B77F 2024-03-27 00:00:00
FX CTR NZAA FEDEX-B77F 2024-03-24 00:00:00
FX 681 NZAA FEDEX-B77F 2024-03-20 00:00:00
FXCTR KMEM FEDEX-MD11... 2024-03-19 00:00:00
FX ATC PHNL IFATC 2024-03-19 00:00:00
FX 202 KMEM FEDEX-B77F 2024-03-19 00:00:00
FX CTR PHNI FEDEX-DC10... 2024-03-19 00:00:00
FX CTR PGUM FEDEX-B77F 2024-03-18 00:00:00
FX 230 KOAK FEDEX-B77F 2024-03-15 00:00:00
FX 657 ZSPD FEDEX-B77F 2024-03-07 00:00:00
CONNECT 909 KMEM FEDEX-B77F 2024-02-29 00:00:00
CONNECT 909 KMEM FEDEX-B77F 2024-02-26 00:00:00
FX 759 KLAX FEDEX-MD11... 2024-02-26 00:00:00
CONNECT 909 KMEM FEDEX-B77F 2024-02-26 00:00:00
MTN8734 PHNY FEDEX-C208 2024-02-24 00:00:00
FX 714 NZAA FEDEX-B77F 2024-02-20 00:00:00
FX 231 KOAK FEDEX-B77F 2024-02-18 00:00:00
FX 795 KLAX FEDEX-MD11... 2024-02-18 00:00:00
FX 583 YSSY FEDEX-MD11... 2024-02-13 00:00:00
FX 795 KLAX FEDEX-MD11... 2024-02-13 00:00:00
FX 708 RJBB FEDEX-B77F 2024-02-09 00:00:00
FX 688 ZSPD FEDEX-B77F 2024-01-27 00:00:00
FX714 NZAA FEDEX-B77F 2024-01-28 00:00:00
FX WINTER 42 PANC B77F 2024-01-11 00:00:00
FX203 KMEM B77F 2024-01-10 00:00:00
FX714 NZAA B77F 2024-01-09 00:00:00
FX 714 NZAA B77F 2024-01-10 00:00:00
FX WINTER 42 PANC B77F 2024-01-08 00:00:00
MTN 8732 PHLI C208 2024-01-06 00:00:00
FX 231 KOAK B77F 2024-01-06 00:00:00
FX WINTER 42 PANC B77F 2024-01-04 00:00:00
FX WINTER 42 PANC B77F 2023-12-31 00:00:00
FX 231 KOAK B77F 2023-12-30 00:00:00
FX 203 KMEM B77F 2023-12-29 00:00:00
FX WINTER 42 PANC B77F 2023-12-27 00:00:00
FX 231 KOAK B77F 2023-12-27 00:00:00
FX WINTER 42 PANC B77F 2023-12-25 00:00:00
FX 203 KMEM B77F 2023-12-13 00:00:00
FX WINTER 42 PANC B77F 2023-12-11 00:00:00
FX 231 KOAK MD11F 2023-12-08 00:00:00
FX836 KONT B77F 2023-12-01 00:00:00
FX CTR LTFM B77F 2023-11-27 00:00:00
FX CTR LTFM B77F 2023-11-27 00:00:00
FX CTR KOAK B77F 2023-11-17 00:00:00
FX 795 KLAX MD11F 2023-11-15 00:00:00
FX 231 KOAK B77F 2023-11-14 00:00:00
FX795 KLAX MD11F 2023-11-13 00:00:00
FX203 KMEM B77F 2023-11-04 00:00:00
FX 583 YSSY B77F 2023-11-02 00:00:00
FX 845 RKSI MD11F 2023-10-30 00:00:00
FX 708 RJBB B77F 2023-10-27 00:00:00
5Y49 KMEM ATLAS B748 2023-10-28 00:00:00
FX 203 KMEM B77F 2023-10-17 00:00:00
FX 203 KMEM B77F 2023-10-14 00:00:00
FX 203 KMEM B77F 2023-10-12 00:00:00
FX203 KMEM B77F 2023-10-08 00:00:00
FX 231 KOAK B77F 2023-10-06 00:00:00
FX 795 KLAX MD11F 2023-10-04 00:00:00
FX 583 YSSY MD11F 2023-10-02 00:00:00
FX 203 KMEM B77F 2023-10-02 00:00:00
FX CTR EDDM B77F 2023-09-30 00:00:00
FX 203 KMEM MD11F 2023-09-24 00:00:00
FX688 ZSPD MD11F 2023-09-23 00:00:00
MTN8734 PHNY C208 2023-09-20 00:00:00
FX 714 NZAA B77F 2023-09-18 00:00:00
FX 708 RJBB B77F 2023-09-17 00:00:00
MTN 8734 PHNY C208 2023-09-12 00:00:00
FX231 KOAK B77F 2023-09-10 00:00:00
FX CHARTER KJFK B77F 2023-09-04 00:00:00
FX 714 NZAA B77F 2023-08-31 00:00:00
FX 203 KMEM B77F 2023-08-29 00:00:00
FX 203 KMEM MD11F 2023-08-29 00:00:00
FX231 KOAK B77F 2023-08-28 00:00:00
FXEVENT PHOG C208 2023-08-26 00:00:00
FX EVENT PHOG C208 2023-08-26 00:00:00
FX EVENT PHOG C208 2023-08-26 00:00:00
FX EVENT PHOG C208 2023-08-26 00:00:00
FX EVENT PHOG C208 2023-08-26 00:00:00
FX EVENT PHOG C208 2023-08-26 00:00:00
FX EVENT PHOG C208 2023-08-26 00:00:00
FX EVENT PHOG C208 2023-08-26 00:00:00
FX CTR PHOG C208 2023-08-26 00:00:00
FX 203 KMEM B77F 2023-08-25 00:00:00
FX 714 NZAA B77F 2023-08-20 00:00:00
FX203 KMEM MD11F 2023-08-07 00:00:00
MTN 8490 PHMK C208 2023-07-26 00:00:00
FX EVENT PHNL B77F 2023-07-22 00:00:00
FX EVENT FLYOUT KOAK B77F 2023-07-23 00:00:00
FX EVENT PHMK C208 2023-07-22 00:00:00
FX 231 KOAK B77F 2023-07-22 00:00:00
FX 795 KLAX MD11F 2023-07-21 00:00:00
FX CTR DGAA B77F 2023-07-21 00:00:00
FX CTR KEWR B77F 2023-07-20 00:00:00

Arrivals History (last 12 months)

Flight No. Origin Aircraft Date
FX 579 YSSY FEDEX-MD11... 2024-07-10 00:00:00
FX 785 NZAA FEDEX-MD11... 2024-07-05 00:00:00
FX 758 KLAX FEDEX-MD11... 2024-07-06 00:00:00
FX 758 KLAX FEDEX-DC10... 2024-07-06 00:00:00
FX758 KLAX FEDEX-MD11... 2024-06-24 00:00:00
MTN8735 PHNY FEDEX-C208 2024-06-19 00:00:00
FX229 KOAK FEDEX-B77F 2024-06-19 00:00:00
FX671 WSSS FEDEX-B77F 2024-06-17 00:00:00
FX 671 WSSS FEDEX-B77F 2024-06-17 00:00:00
FX 656 ZSPD FEDEX-B77F 2024-06-15 00:00:00
FX 201 KMEM FEDEX-B77F 2024-05-27 00:00:00
FX CTR KLAX FEDEX-B77F 2024-05-19 00:00:00
FXCTR PGUM FEDEX-B77F 2024-05-16 00:00:00
FX 579 YSSY FEDEX-B77F 2024-05-16 00:00:00
FX579 YSSY FEDEX-B77F 2024-05-06 00:00:00
FX 671 WSSS FEDEX-B77F 2024-05-04 00:00:00
CONNECT 66 WSSS FEDEX-B77F 2024-04-28 00:00:00
FX CTR ZGGG FEDEX-MD11... 2024-04-27 00:00:00
CONNECT66 WSSS FEDEX-B77F 2024-04-27 00:00:00
CONNECT 66 WSSS FEDEX-B77F 2024-04-23 00:00:00
CONNECT 66 WSSS FEDEX-B77F 2024-04-22 00:00:00
FX 785 NZAA FEDEX-MD11... 2024-04-16 00:00:00
FX 785 NZAA FEDEX-MD11... 2024-04-12 00:00:00
FX 671 WSSS FEDEX-B77F 2024-04-13 00:00:00
FX201 KMEM FEDEX-B77F 2024-04-10 00:00:00
FXCTR WSSS FEDEX-B77F 2024-03-29 00:00:00
FX 579 YSSY FEDEX-B77F 2024-03-28 00:00:00
FX 229 KOAK FEDEX-MD11... 2024-03-28 00:00:00
FXCTR NZAA FEDEX-B77F 2024-03-26 00:00:00
FX CTR NZAA FEDEX-B77F 2024-03-22 00:00:00
FX ATC PHNL IFATC 2024-03-19 00:00:00
FXCTR PGUM FEDEX-B77F 2024-03-18 00:00:00
FXCTR KLAX FEDEX-B77F 2024-03-17 00:00:00
FX 229 KOAK FEDEX-B77F 2024-03-16 00:00:00
FX671 WSSS FEDEX-B77F 2024-03-14 00:00:00
FX 671 WSSS FEDEX-B77F 2024-03-03 00:00:00
FX 758 KLAX FEDEX-MD11... 2024-02-28 00:00:00
FX 758 KLAX FEDEX-MD11... 2024-02-25 00:00:00
FX EVENT PHTO FEDEX-C208 2024-02-24 00:00:00
FX EVENT PHOG FEDEX-C208 2024-02-24 00:00:00
FX EVENT PHOG FEDEX-C208 2024-02-24 00:00:00
FX EVENT PHOG FEDEX-C208 2024-02-24 00:00:00
FX EVENT PHOG FEDEX-C208 2024-02-24 00:00:00
FXCTR PGUM FEDEX-B77F 2024-02-18 00:00:00
FX582 YSSY FEDEX-MD11... 2024-02-15 00:00:00
FX 703 WSSS FEDEX-B77F 2024-02-15 00:00:00
FX 202 KMEM FEDEX-B77F 2024-02-15 00:00:00
FX 703 WSSS FEDEX-B77F 2024-02-13 00:00:00
CONNECT 534 NZAA FEDEX-MD11... 2024-02-12 00:00:00
FX202 KMEM FEDEX-B77F 2024-02-04 00:00:00
FX 703 WSSS FEDEX-B77F 2024-01-28 00:00:00
FX 582 YSSY FEDEX-B77F 2024-01-23 00:00:00
FX 703 WSSS FEDEX-B77F 2024-01-17 00:00:00
FX 703 WSSS FEDEX-B77F 2024-01-15 00:00:00
FX WINTER 41 RPLL B77F 2024-01-10 00:00:00
FX202 KMEM B77F 2024-01-09 00:00:00
FX WINTER 41 RPLL B77F 2024-01-08 00:00:00
MTN 8733 PHLI C208 2024-01-07 00:00:00
FX 202 KMEM B77F 2024-01-06 00:00:00
FX 202 KMEM B77F 2024-01-03 00:00:00
FX WINTER 41 RPLL B77F 2023-12-31 00:00:00
FX WINTER 41 RPLL B77F 2023-12-27 00:00:00
FX 703 WSSS B77F 2023-12-27 00:00:00
FX WINTER 41 RPLL B77F 2023-12-25 00:00:00
FX WINTER 41 RPLL B77F 2023-12-25 00:00:00
FX 703 WSSS B77F 2023-12-21 00:00:00
FX 703 WSSS B77F 2023-12-12 00:00:00
FX WINTER 41 RPLL B77F 2023-12-10 00:00:00
FX CTR EGKK TNT B77F 2023-12-10 00:00:00
FX 794 KLAX MD11F 2023-12-08 00:00:00
FX 202 KMEM B77F 2023-11-27 00:00:00
FX 703 WSSS B77F 2023-11-25 00:00:00
FX CTR KOAK DC10F 2023-11-17 00:00:00
FX703 WSSS B77F 2023-11-13 00:00:00
FX 582 YSSY B77F 2023-11-10 00:00:00
FX CTR KMIA B77F 2023-11-06 00:00:00
FX821 NZAA MD11F 2023-11-04 00:00:00
FX CTR EDDF TNT B77F 2023-11-02 00:00:00
FX 202 KMEM B77F 2023-11-01 00:00:00
FXCTR AYPY B77F 2023-10-17 00:00:00
FX 582 YSSY B77F 2023-10-13 00:00:00
FX 703 WSSS B77F 2023-10-12 00:00:00
FX 703 WSSS B77F 2023-10-11 00:00:00
FX CTR OTHH B77F 2023-10-07 00:00:00
FX230 KOAK B77F 2023-10-04 00:00:00
FX 202 KMEM B77F 2023-10-04 00:00:00
FX CTR FACT B77F 2023-10-03 00:00:00
FX 703 WSSS B77F 2023-10-02 00:00:00
FX 230 KOAK MD11F 2023-10-02 00:00:00
FX 703 WSSS B77F 2023-10-01 00:00:00
FX 202 KMEM MD11F 2023-10-01 00:00:00
FX CTR LTFM B77F 2023-09-27 00:00:00
FX821 NZAA MD11F 2023-09-27 00:00:00
FX CTR KCLT B77F 2023-09-23 00:00:00
FX 703 WSSS B77F 2023-09-24 00:00:00
FX 794 KLAX MD11F 2023-09-22 00:00:00
FX CTR LGAV B77F 2023-09-21 00:00:00
FX230 KOAK B77F 2023-09-15 00:00:00
FX821 NZAA MD11F 2023-09-09 00:00:00
FX 703 WSSS B77F 2023-09-09 00:00:00
FX CTR KDEN MD11F 2023-09-06 00:00:00
FX CTR KDEN MD11F 2023-09-06 00:00:00
FX582 YSSY B77F 2023-10-02 00:00:00
FX202 KMEM B77F 2023-08-29 00:00:00
FX CTR PANC B77F 2023-08-26 00:00:00
FX 582 YSSY B77F 2023-08-25 00:00:00
FX687 ZSPD B77F 2023-08-23 00:00:00
FX 202 KMEM MD11F 2023-08-11 00:00:00
FX687 ZSPD MD11F 2023-08-06 00:00:00
FX 230 KOAK B77F 2023-08-05 00:00:00
FX582 YSSY B77F 2023-07-30 00:00:00
FX EVENT PHNL B77F 2023-07-22 00:00:00
FX 794 KLAX MD11F 2023-07-22 00:00:00
FX 703 WSSS B77F 2023-07-20 00:00:00

Runway Information (Airport elevation: 6ft)

Runway 04L Length 6,965ft Width 153ft Elevation 6ft Surface Asphalt Heading 53
Runway 04R Length 8,988ft Width 156ft Elevation 6ft Surface Asphalt Heading 53
Runway 04W Length 4,706ft Width 452ft Elevation 6ft Surface Water Heading 51
Runway 08 Length 6,243ft Width 385ft Elevation 6ft Surface Water Heading 90
Runway 08L Length 12,289ft Width 152ft Elevation 6ft Surface Asphalt Heading 90
Runway 08R Length 12,007ft Width 199ft Elevation 6ft Surface Asphalt Heading 90
Runway 22L Length 8,988ft Width 156ft Elevation 6ft Surface Asphalt Heading 233
Runway 22R Length 6,965ft Width 153ft Elevation 6ft Surface Asphalt Heading 233
Runway 22W Length 4,706ft Width 452ft Elevation 6ft Surface Water Heading 231
Runway 26 Length 6,243ft Width 385ft Elevation 6ft Surface Water Heading 270
Runway 26L Length 12,007ft Width 199ft Elevation 6ft Surface Asphalt Heading 270
Runway 26R Length 12,289ft Width 152ft Elevation 6ft Surface Asphalt Heading 270

Airport Frequencies

Type APP/DEP Frequency 118.300 Mhz
Type ATIS Frequency 127.900 Mhz
Type Clearance Frequency 121.400 Mhz
Type D Frequency 118.300 Mhz
Type D Frequency 124.800 Mhz
Type FSS Frequency 122.100 Mhz
Type Ground Frequency 121.900 Mhz
Type Ground Frequency 133.600 Mhz
Type Tower Frequency 118.100 Mhz
Type Tower Frequency 123.900 Mhz
Type APP/DEP Frequency 118.300 Mhz
Type CTR Frequency 119.300 Mhz
Type Clearance Frequency 121.400 Mhz
Type D Frequency 118.300 Mhz
Type D Frequency 119.100 Mhz
Type D Frequency 124.800 Mhz
Type Ground Frequency 121.800 Mhz

Airport Navaids

No navaids to display.